createdAt,value
2023-05-03T00:00:45.340Z,62.81
2023-05-03T00:01:45.342Z,62.61
2023-05-03T00:02:45.472Z,62.81
2023-05-03T00:03:45.318Z,62.71
2023-05-03T00:04:45.474Z,62.74
2023-05-03T00:05:45.343Z,62.71
2023-05-03T00:06:45.370Z,62.90
2023-05-03T00:07:45.304Z,62.81
2023-05-03T00:08:45.298Z,62.71
2023-05-03T00:09:45.285Z,62.71
2023-05-03T00:10:45.285Z,62.81
2023-05-03T00:11:45.289Z,62.71
2023-05-03T00:12:45.278Z,62.71
2023-05-03T00:13:45.277Z,62.71
2023-05-03T00:14:45.276Z,62.81
2023-05-03T00:15:45.265Z,62.81
2023-05-03T00:16:45.280Z,62.81
2023-05-03T00:17:45.308Z,62.13
2023-05-03T00:18:46.376Z,62.90
2023-05-03T00:19:45.281Z,62.71
2023-05-03T00:20:45.273Z,62.81
2023-05-03T00:21:45.253Z,62.81
2023-05-03T00:22:45.248Z,62.81
2023-05-03T00:23:45.256Z,62.81
2023-05-03T00:24:45.252Z,62.23
2023-05-03T00:25:45.240Z,62.90
2023-05-03T00:26:45.244Z,62.81
2023-05-03T00:27:45.230Z,62.81
2023-05-03T00:28:45.240Z,62.71
2023-05-03T00:29:45.236Z,62.71
2023-05-03T00:30:45.267Z,62.81
2023-05-03T00:31:45.236Z,62.71
2023-05-03T00:32:45.221Z,62.71
2023-05-03T00:33:45.219Z,62.81
2023-05-03T00:34:45.214Z,62.90
2023-05-03T00:35:45.215Z,62.90
2023-05-03T00:36:45.251Z,62.81
2023-05-03T00:37:45.232Z,62.90
2023-05-03T00:38:45.207Z,61.94
2023-05-03T00:39:45.187Z,62.81
2023-05-03T00:40:45.192Z,62.71
2023-05-03T00:41:45.197Z,61.94
2023-05-03T00:42:45.199Z,62.71
2023-05-03T00:43:45.196Z,62.23
2023-05-03T00:44:45.195Z,62.71
2023-05-03T00:45:45.190Z,62.81
2023-05-03T00:46:45.216Z,62.81
2023-05-03T00:47:45.204Z,62.81
2023-05-03T00:48:45.187Z,62.81
2023-05-03T00:49:45.170Z,62.71
2023-05-03T00:50:45.171Z,62.81
2023-05-03T00:51:45.166Z,62.90
2023-05-03T00:52:45.172Z,62.81
2023-05-03T00:53:45.168Z,62.90
2023-05-03T00:54:45.158Z,62.81
2023-05-03T00:55:45.142Z,62.71
2023-05-03T00:56:51.667Z,62.71
2023-05-03T00:57:45.160Z,62.90
2023-05-03T00:58:45.134Z,62.81
2023-05-03T00:59:45.137Z,62.90
2023-05-03T01:00:45.129Z,62.81
2023-05-03T01:01:45.161Z,62.81
2023-05-03T01:02:45.236Z,62.81
2023-05-03T01:03:45.244Z,62.90
2023-05-03T01:04:45.114Z,62.90
2023-05-03T01:05:45.116Z,62.81
2023-05-03T01:06:45.187Z,62.71
2023-05-03T01:07:45.114Z,62.71
2023-05-03T01:08:45.119Z,62.71
2023-05-03T01:09:45.090Z,61.94
2023-05-03T01:10:45.092Z,62.71
2023-05-03T01:11:45.099Z,62.71
2023-05-03T01:12:45.101Z,62.71
2023-05-03T01:13:45.107Z,62.71
2023-05-03T01:14:45.090Z,62.61
2023-05-03T01:15:45.118Z,62.81
2023-05-03T01:16:45.125Z,62.81
2023-05-03T01:17:45.097Z,62.71
2023-05-03T01:18:45.060Z,62.71
2023-05-03T01:19:45.070Z,62.61
2023-05-03T01:20:45.074Z,62.90
2023-05-03T01:21:45.059Z,62.71
2023-05-03T01:22:45.069Z,62.61
2023-05-03T01:23:45.070Z,62.71
2023-05-03T01:24:45.083Z,62.81
2023-05-03T01:25:45.036Z,62.71
2023-05-03T01:26:45.052Z,62.81
2023-05-03T01:27:45.041Z,62.81
2023-05-03T01:28:45.053Z,62.61
2023-05-03T01:29:45.023Z,62.61
2023-05-03T01:30:45.031Z,62.52
2023-05-03T01:31:45.047Z,62.61
2023-05-03T01:32:45.109Z,62.90
2023-05-03T01:33:45.011Z,62.71
2023-05-03T01:34:45.047Z,62.61
2023-05-03T01:35:45.013Z,62.52
2023-05-03T01:36:45.015Z,62.61
2023-05-03T01:37:45.016Z,62.23
2023-05-03T01:38:45.028Z,62.90
2023-05-03T01:39:45.008Z,62.71
2023-05-03T01:40:45.056Z,62.61
2023-05-03T01:41:44.992Z,62.71
2023-05-03T01:42:45.009Z,62.81
2023-05-03T01:43:44.976Z,62.32
2023-05-03T01:44:44.988Z,62.81
2023-05-03T01:45:45.000Z,62.81
2023-05-03T01:46:45.008Z,62.42
2023-05-03T01:47:45.000Z,62.42
2023-05-03T01:48:44.976Z,62.81
2023-05-03T01:49:44.974Z,62.90
2023-05-03T01:50:44.991Z,62.71
2023-05-03T01:51:44.966Z,62.81
2023-05-03T01:52:44.969Z,62.23
2023-05-03T01:53:44.983Z,62.32
2023-05-03T01:54:44.952Z,62.81
2023-05-03T01:55:44.953Z,62.90
2023-05-03T01:56:44.976Z,62.42
2023-05-03T01:57:44.949Z,62.32
2023-05-03T01:58:44.939Z,62.32
2023-05-03T01:59:44.974Z,62.81
2023-05-03T02:00:44.998Z,62.32
2023-05-03T02:01:44.919Z,62.32
2023-05-03T02:02:44.962Z,62.81
2023-05-03T02:03:44.912Z,62.52
2023-05-03T02:04:44.963Z,62.42
2023-05-03T02:05:44.913Z,62.32
2023-05-03T02:06:45.016Z,62.32
2023-05-03T02:07:44.907Z,62.32
2023-05-03T02:08:44.924Z,62.32
2023-05-03T02:09:44.901Z,62.52
2023-05-03T02:10:44.908Z,62.42
2023-05-03T02:11:44.903Z,62.32
2023-05-03T02:12:44.926Z,62.32
2023-05-03T02:13:44.882Z,62.52
2023-05-03T02:14:44.902Z,62.32
2023-05-03T02:15:44.871Z,62.32
2023-05-03T02:16:44.918Z,62.42
2023-05-03T02:17:44.889Z,62.32
2023-05-03T02:18:44.877Z,62.42
2023-05-03T02:19:44.893Z,62.32
2023-05-03T02:20:44.898Z,62.42
2023-05-03T02:21:44.857Z,62.42
2023-05-03T02:22:44.881Z,62.42
2023-05-03T02:23:44.858Z,62.42
2023-05-03T02:24:44.869Z,62.42
2023-05-03T02:25:44.841Z,62.32
2023-05-03T02:26:44.842Z,62.42
2023-05-03T02:27:44.838Z,62.32
2023-05-03T02:28:44.860Z,62.42
2023-05-03T02:29:44.836Z,62.52
2023-05-03T02:30:44.895Z,62.61
2023-05-03T02:31:44.845Z,62.61
2023-05-03T02:32:44.854Z,62.61
2023-05-03T02:33:44.810Z,62.42
2023-05-03T02:34:44.836Z,62.71
2023-05-03T02:35:44.831Z,62.52
2023-05-03T02:36:44.842Z,62.52
2023-05-03T02:37:44.800Z,62.61
2023-05-03T02:38:44.815Z,62.42
2023-05-03T02:39:44.817Z,62.23
2023-05-03T02:40:44.807Z,62.52
2023-05-03T02:41:44.791Z,62.23
2023-05-03T02:42:44.797Z,62.52
2023-05-03T02:43:44.788Z,62.13
2023-05-03T02:44:44.811Z,62.13
2023-05-03T02:45:44.789Z,62.13
2023-05-03T02:46:44.897Z,62.42
2023-05-03T02:47:44.817Z,62.32
2023-05-03T02:48:44.774Z,62.42
2023-05-03T02:49:44.773Z,62.13
2023-05-03T02:50:44.760Z,62.23
2023-05-03T02:51:44.776Z,62.52
2023-05-03T02:52:44.769Z,62.52
2023-05-03T02:53:44.757Z,62.13
2023-05-03T02:54:44.753Z,62.32
2023-05-03T02:55:44.732Z,62.13
2023-05-03T02:56:44.732Z,62.52
2023-05-03T02:57:44.748Z,62.32
2023-05-03T02:58:44.751Z,62.04
2023-05-03T02:59:44.743Z,62.42
2023-05-03T03:00:44.754Z,62.42
2023-05-03T03:01:44.774Z,62.32
2023-05-03T03:02:44.796Z,62.42
2023-05-03T03:03:44.853Z,62.42
2023-05-03T03:04:44.734Z,62.32
2023-05-03T03:05:44.731Z,62.32
2023-05-03T03:06:44.727Z,62.42
2023-05-03T03:07:44.708Z,62.32
2023-05-03T03:08:44.706Z,62.32
2023-05-03T03:09:44.704Z,62.23
2023-05-03T03:10:44.684Z,62.32
2023-05-03T03:11:44.684Z,62.32
2023-05-03T03:12:44.675Z,62.32
2023-05-03T03:13:44.680Z,62.42
2023-05-03T03:14:44.682Z,62.32
2023-05-03T03:15:44.733Z,62.42
2023-05-03T03:16:44.683Z,62.61
2023-05-03T03:17:44.716Z,62.32
2023-05-03T03:18:44.661Z,62.42
2023-05-03T03:19:44.660Z,62.32
2023-05-03T03:20:44.656Z,62.32
2023-05-03T03:21:44.714Z,62.23
2023-05-03T03:22:44.638Z,62.42
2023-05-03T03:23:44.660Z,62.23
2023-05-03T03:24:44.659Z,62.39
2023-05-03T03:25:44.651Z,62.42
2023-05-03T03:26:44.629Z,62.32
2023-05-03T03:27:44.651Z,62.32
2023-05-03T03:28:44.630Z,62.23
2023-05-03T03:29:44.629Z,62.32
2023-05-03T03:30:44.630Z,62.32
2023-05-03T03:31:44.667Z,62.23
2023-05-03T03:32:44.701Z,62.32
2023-05-03T03:33:44.631Z,62.23
2023-05-03T03:34:44.620Z,62.32
2023-05-03T03:35:44.608Z,62.32
2023-05-03T03:36:44.609Z,62.23
2023-05-03T03:37:44.610Z,62.23
2023-05-03T03:38:44.614Z,62.23
2023-05-03T03:39:44.594Z,62.23
2023-05-03T03:40:44.597Z,62.23
2023-05-03T03:41:44.587Z,62.13
2023-05-03T03:42:44.594Z,62.23
2023-05-03T03:43:44.598Z,62.32
2023-05-03T03:44:44.573Z,62.13
2023-05-03T03:45:44.565Z,62.23
2023-05-03T03:46:44.636Z,62.23
2023-05-03T03:47:44.584Z,62.23
2023-05-03T03:48:44.591Z,62.23
2023-05-03T03:49:44.563Z,62.23
2023-05-03T03:50:44.544Z,62.23
2023-05-03T03:51:44.552Z,62.23
2023-05-03T03:52:44.547Z,62.32
2023-05-03T03:53:44.565Z,62.32
2023-05-03T03:54:44.556Z,62.13
2023-05-03T03:55:44.563Z,62.23
2023-05-03T03:56:44.558Z,62.48
2023-05-03T03:57:44.539Z,62.52
2023-05-03T03:58:44.536Z,62.13
2023-05-03T03:59:44.527Z,62.52
2023-05-03T04:00:44.515Z,62.52
2023-05-03T04:01:44.592Z,62.42
2023-05-03T04:02:45.765Z,62.48
2023-05-03T04:03:44.709Z,62.58
2023-05-03T04:04:44.545Z,62.68
2023-05-03T04:05:44.515Z,62.52
2023-05-03T04:06:44.596Z,62.52
2023-05-03T04:07:44.512Z,62.48
2023-05-03T04:08:44.491Z,62.58
2023-05-03T04:09:44.489Z,62.61
2023-05-03T04:10:44.491Z,62.01
2023-05-03T04:11:44.499Z,62.48
2023-05-03T04:12:44.489Z,62.61
2023-05-03T04:13:44.478Z,62.23
2023-05-03T04:14:44.482Z,62.52
2023-05-03T04:15:44.486Z,62.01
2023-05-03T04:16:44.550Z,62.48
2023-05-03T04:17:44.512Z,62.01
2023-05-03T04:18:44.513Z,62.01
2023-05-03T04:19:44.457Z,62.01
2023-05-03T04:20:44.486Z,61.94
2023-05-03T04:21:44.453Z,61.91
2023-05-03T04:22:44.433Z,61.91
2023-05-03T04:23:44.434Z,61.91
2023-05-03T04:24:44.457Z,61.91
2023-05-03T04:25:44.435Z,62.19
2023-05-03T04:26:44.431Z,62.01
2023-05-03T04:27:44.425Z,62.01
2023-05-03T04:28:44.429Z,61.91
2023-05-03T04:29:44.454Z,62.01
2023-05-03T04:30:44.547Z,61.91
2023-05-03T04:31:44.412Z,62.01
2023-05-03T04:32:44.435Z,62.01
2023-05-03T04:33:44.417Z,62.04
2023-05-03T04:34:44.401Z,62.01
2023-05-03T04:35:44.398Z,62.01
2023-05-03T04:36:44.403Z,61.91
2023-05-03T04:37:44.392Z,61.91
2023-05-03T04:38:44.396Z,61.72
2023-05-03T04:39:44.406Z,62.01
2023-05-03T04:40:44.375Z,62.10
2023-05-03T04:41:44.387Z,61.72
2023-05-03T04:42:44.366Z,61.72
2023-05-03T04:43:44.389Z,61.81
2023-05-03T04:44:44.379Z,61.72
2023-05-03T04:45:44.378Z,61.81
2023-05-03T04:46:44.410Z,62.01
2023-05-03T04:47:44.380Z,62.01
2023-05-03T04:48:44.348Z,61.81
2023-05-03T04:49:44.443Z,61.81
2023-05-03T04:50:44.354Z,61.81
2023-05-03T04:51:44.361Z,62.01
2023-05-03T04:52:44.372Z,62.01
2023-05-03T04:53:44.363Z,62.01
2023-05-03T04:54:44.348Z,62.01
2023-05-03T04:55:44.336Z,61.91
2023-05-03T04:56:44.319Z,61.81
2023-05-03T04:57:44.341Z,61.81
2023-05-03T04:58:44.308Z,61.81
2023-05-03T04:59:44.340Z,61.81
2023-05-03T05:00:44.315Z,61.72
2023-05-03T05:01:44.425Z,62.01
2023-05-03T05:02:44.385Z,61.81
2023-05-03T05:03:44.440Z,61.94
2023-05-03T05:04:44.291Z,61.94
2023-05-03T05:05:44.298Z,62.23
2023-05-03T05:06:44.329Z,61.94
2023-05-03T05:07:44.275Z,61.94
2023-05-03T05:08:44.319Z,61.84
2023-05-03T05:09:44.272Z,61.55
2023-05-03T05:10:44.271Z,61.75
2023-05-03T05:11:44.277Z,61.75
2023-05-03T05:12:44.261Z,61.46
2023-05-03T05:13:44.272Z,61.46
2023-05-03T05:14:44.256Z,61.36
2023-05-03T05:15:44.258Z,61.08
2023-05-03T05:16:44.371Z,60.98
2023-05-03T05:17:44.468Z,61.08
2023-05-03T05:18:44.251Z,61.08
2023-05-03T05:19:44.257Z,61.27
2023-05-03T05:20:44.252Z,61.46
2023-05-03T05:21:44.251Z,61.30
2023-05-03T05:22:44.243Z,61.01
2023-05-03T05:23:44.232Z,61.11
2023-05-03T05:24:44.304Z,60.91
2023-05-03T05:25:44.240Z,60.82
2023-05-03T05:26:44.226Z,61.11
2023-05-03T05:27:44.250Z,60.72
2023-05-03T05:28:44.222Z,60.24
2023-05-03T05:29:44.212Z,60.43
2023-05-03T05:30:44.217Z,60.43
2023-05-03T05:31:44.248Z,60.14
2023-05-03T05:32:44.220Z,60.14
2023-05-03T05:33:44.207Z,60.24
2023-05-03T05:34:45.608Z,60.17
2023-05-03T05:35:44.242Z,60.14
2023-05-03T05:36:44.192Z,60.08
2023-05-03T05:37:44.217Z,60.34
2023-05-03T05:38:44.189Z,60.14
2023-05-03T05:39:44.229Z,60.37
2023-05-03T05:40:44.205Z,60.37
2023-05-03T05:41:44.194Z,60.05
2023-05-03T05:42:44.196Z,60.08
2023-05-03T05:43:44.193Z,60.37
2023-05-03T05:44:44.197Z,60.08
2023-05-03T05:45:44.215Z,60.34
2023-05-03T05:46:44.242Z,60.37
2023-05-03T05:47:44.234Z,60.27
2023-05-03T05:48:44.242Z,60.37
2023-05-03T05:49:44.164Z,60.27
2023-05-03T05:50:44.169Z,60.27
2023-05-03T05:51:44.173Z,60.27
2023-05-03T05:52:44.193Z,60.27
2023-05-03T05:53:44.180Z,60.37
2023-05-03T05:54:44.152Z,60.27
2023-05-03T05:55:44.178Z,60.27
2023-05-03T05:56:44.293Z,60.37
2023-05-03T05:57:44.179Z,60.37
2023-05-03T05:58:44.199Z,60.17
2023-05-03T05:59:44.154Z,60.27
2023-05-03T06:00:44.165Z,60.37
2023-05-03T06:01:44.170Z,60.27
2023-05-03T06:02:44.229Z,60.37
2023-05-03T06:03:44.238Z,60.46
2023-05-03T06:04:44.219Z,60.37
2023-05-03T06:05:44.189Z,60.27
2023-05-03T06:06:44.182Z,60.37
2023-05-03T06:07:44.143Z,60.37
2023-05-03T06:08:44.127Z,60.37
2023-05-03T06:09:44.150Z,60.27
2023-05-03T06:10:44.151Z,60.27
2023-05-03T06:11:44.143Z,60.37
2023-05-03T06:12:44.174Z,60.27
2023-05-03T06:13:44.146Z,60.37
2023-05-03T06:14:55.403Z,60.08
2023-05-03T06:15:44.139Z,60.08
2023-05-03T06:16:44.169Z,60.17
2023-05-03T06:17:44.166Z,60.17
2023-05-03T06:18:44.121Z,60.37
2023-05-03T06:19:45.156Z,60.27
2023-05-03T06:20:44.111Z,60.17
2023-05-03T06:21:44.116Z,60.46
2023-05-03T06:22:44.109Z,60.17
2023-05-03T06:23:44.138Z,60.17
2023-05-03T06:24:44.097Z,60.17
2023-05-03T06:25:44.100Z,60.56
2023-05-03T06:26:44.113Z,60.27
2023-05-03T06:27:44.098Z,60.46
2023-05-03T06:28:44.126Z,60.46
2023-05-03T06:29:44.094Z,60.27
2023-05-03T06:30:44.140Z,60.27
2023-05-03T06:31:44.128Z,60.56
2023-05-03T06:32:44.168Z,60.37
2023-05-03T06:33:44.134Z,60.56
2023-05-03T06:34:44.098Z,60.66
2023-05-03T06:35:44.089Z,60.56
2023-05-03T06:36:44.071Z,60.56
2023-05-03T06:37:44.078Z,60.56
2023-05-03T06:38:44.072Z,60.94
2023-05-03T06:39:44.104Z,61.23
2023-05-03T06:40:44.061Z,60.75
2023-05-03T06:41:44.076Z,61.04
2023-05-03T06:42:44.080Z,60.75
2023-05-03T06:43:44.127Z,60.75
2023-05-03T06:44:44.165Z,61.04
2023-05-03T06:45:44.058Z,60.94
2023-05-03T06:46:44.087Z,61.04
2023-05-03T06:47:44.098Z,61.04
2023-05-03T06:48:44.086Z,60.94
2023-05-03T06:49:44.056Z,60.85
2023-05-03T06:50:44.064Z,60.85
2023-05-03T06:51:44.062Z,60.94
2023-05-03T06:52:44.062Z,61.04
2023-05-03T06:53:44.049Z,61.33
2023-05-03T06:54:44.062Z,61.04
2023-05-03T06:55:44.059Z,60.85
2023-05-03T06:56:44.038Z,60.94
2023-05-03T06:57:44.039Z,60.94
2023-05-03T06:58:44.022Z,60.94
2023-05-03T06:59:44.042Z,61.04
2023-05-03T07:00:44.191Z,60.94
2023-05-03T07:01:44.075Z,61.23
2023-05-03T07:02:44.095Z,61.23
2023-05-03T07:03:44.180Z,61.23
2023-05-03T07:04:44.030Z,60.85
2023-05-03T07:05:44.026Z,61.43
2023-05-03T07:06:55.210Z,61.43
2023-05-03T07:07:44.014Z,61.43
2023-05-03T07:08:44.004Z,61.43
2023-05-03T07:09:44.279Z,61.43
2023-05-03T07:10:44.009Z,61.23
2023-05-03T07:11:44.005Z,61.33
2023-05-03T07:12:44.016Z,61.33
2023-05-03T07:13:44.060Z,61.23
2023-05-03T07:14:43.990Z,61.23
2023-05-03T07:15:44.054Z,61.33
2023-05-03T07:16:44.145Z,61.23
2023-05-03T07:17:44.021Z,61.23
2023-05-03T07:18:43.997Z,61.33
2023-05-03T07:19:43.982Z,61.33
2023-05-03T07:20:43.993Z,61.33
2023-05-03T07:21:43.985Z,61.43
2023-05-03T07:22:43.974Z,61.23
2023-05-03T07:23:43.987Z,61.23
2023-05-03T07:24:44.009Z,60.94
2023-05-03T07:25:43.981Z,60.94
2023-05-03T07:26:44.696Z,61.14
2023-05-03T07:27:43.954Z,60.85
2023-05-03T07:28:43.960Z,60.94
2023-05-03T07:29:43.976Z,61.04
2023-05-03T07:30:43.972Z,60.85
2023-05-03T07:31:43.985Z,60.56
2023-05-03T07:32:44.100Z,60.75
2023-05-03T07:33:44.098Z,60.85
2023-05-03T07:34:44.016Z,60.66
2023-05-03T07:35:43.951Z,60.27
2023-05-03T07:36:43.949Z,60.46
2023-05-03T07:37:43.947Z,60.17
2023-05-03T07:38:43.942Z,60.46
2023-05-03T07:39:43.979Z,60.17
2023-05-03T07:40:43.989Z,60.27
2023-05-03T07:41:43.952Z,60.78
2023-05-03T07:42:43.958Z,60.46
2023-05-03T07:43:43.929Z,60.27
2023-05-03T07:44:43.949Z,60.21
2023-05-03T07:45:43.952Z,60.08
2023-05-03T07:46:43.941Z,60.30
2023-05-03T07:47:43.936Z,60.39
2023-05-03T07:48:43.968Z,60.21
2023-05-03T07:49:43.922Z,60.11
2023-05-03T07:50:43.927Z,60.21
2023-05-03T07:51:43.920Z,60.11
2023-05-03T07:52:43.918Z,60.21
2023-05-03T07:53:43.904Z,60.11
2023-05-03T07:54:43.899Z,59.63
2023-05-03T07:55:43.919Z,59.92
2023-05-03T07:56:43.916Z,59.53
2023-05-03T07:57:43.910Z,59.53
2023-05-03T07:58:46.694Z,59.82
2023-05-03T07:59:43.914Z,59.72
2023-05-03T08:00:43.912Z,59.63
2023-05-03T08:01:43.894Z,60.01
2023-05-03T08:02:43.986Z,59.72
2023-05-03T08:03:44.133Z,59.05
2023-05-03T08:04:44.140Z,59.44
2023-05-03T08:05:43.969Z,59.17
2023-05-03T08:06:43.945Z,59.27
2023-05-03T08:07:43.879Z,58.86
2023-05-03T08:08:43.894Z,58.98
2023-05-03T08:09:43.896Z,59.17
2023-05-03T08:10:43.912Z,59.47
2023-05-03T08:11:44.399Z,59.37
2023-05-03T08:12:43.890Z,59.17
2023-05-03T08:13:43.873Z,59.08
2023-05-03T08:14:43.906Z,59.08
2023-05-03T08:15:43.915Z,59.27
2023-05-03T08:16:43.904Z,58.98
2023-05-03T08:17:43.938Z,59.37
2023-05-03T08:18:43.897Z,59.27
2023-05-03T08:19:43.889Z,59.08
2023-05-03T08:20:43.908Z,59.08
2023-05-03T08:21:43.882Z,59.08
2023-05-03T08:22:43.882Z,59.17
2023-05-03T08:23:43.875Z,59.47
2023-05-03T08:24:43.867Z,59.27
2023-05-03T08:25:43.862Z,59.27
2023-05-03T08:26:43.909Z,59.27
2023-05-03T08:27:43.869Z,59.17
2023-05-03T08:28:43.864Z,59.17
2023-05-03T08:29:43.889Z,59.37
2023-05-03T08:30:43.863Z,59.37
2023-05-03T08:31:43.923Z,59.27
2023-05-03T08:32:43.891Z,59.17
2023-05-03T08:33:43.867Z,59.27
2023-05-03T08:34:43.881Z,59.27
2023-05-03T08:35:43.866Z,59.27
2023-05-03T08:36:43.884Z,58.89
2023-05-03T08:37:43.873Z,58.50
2023-05-03T08:38:43.855Z,59.08
2023-05-03T08:39:43.865Z,58.98
2023-05-03T08:40:43.848Z,58.70
2023-05-03T08:41:43.840Z,58.50
2023-05-03T08:42:43.847Z,58.98
2023-05-03T08:43:43.839Z,58.60
2023-05-03T08:44:43.839Z,58.50
2023-05-03T08:45:43.837Z,58.79
2023-05-03T08:46:43.914Z,58.89
2023-05-03T08:47:43.865Z,58.79
2023-05-03T08:48:43.840Z,58.79
2023-05-03T08:49:43.843Z,59.08
2023-05-03T08:50:43.843Z,58.60
2023-05-03T08:51:43.823Z,58.89
2023-05-03T08:52:43.862Z,58.50
2023-05-03T08:53:43.828Z,58.60
2023-05-03T08:54:45.350Z,58.70
2023-05-03T08:55:43.868Z,58.70
2023-05-03T08:56:43.820Z,58.60
2023-05-03T08:57:43.822Z,58.50
2023-05-03T08:58:43.841Z,58.60
2023-05-03T08:59:43.818Z,58.70
2023-05-03T09:00:43.822Z,58.70
2023-05-03T09:01:43.910Z,58.79
2023-05-03T09:02:43.955Z,58.70
2023-05-03T09:03:43.878Z,58.70
2023-05-03T09:04:43.812Z,58.70
2023-05-03T09:05:43.802Z,58.70
2023-05-03T09:06:43.866Z,58.60
2023-05-03T09:07:43.801Z,58.50
2023-05-03T09:08:43.962Z,58.70
2023-05-03T09:09:45.604Z,58.60
2023-05-03T09:10:43.809Z,58.70
2023-05-03T09:11:43.789Z,58.70
2023-05-03T09:12:43.804Z,58.60
2023-05-03T09:13:43.784Z,58.50
2023-05-03T09:14:43.781Z,58.70
2023-05-03T09:15:43.791Z,58.98
2023-05-03T09:16:43.804Z,58.60
2023-05-03T09:17:43.817Z,58.70
2023-05-03T09:18:43.782Z,58.79
2023-05-03T09:19:43.775Z,58.98
2023-05-03T09:20:43.782Z,58.98
2023-05-03T09:21:43.770Z,58.98
2023-05-03T09:22:43.775Z,58.60
2023-05-03T09:23:43.778Z,59.08
2023-05-03T09:24:43.834Z,59.08
2023-05-03T09:25:43.776Z,58.70
2023-05-03T09:26:43.783Z,58.79
2023-05-03T09:27:43.774Z,58.70
2023-05-03T09:28:43.776Z,58.79
2023-05-03T09:29:43.768Z,58.79
2023-05-03T09:30:43.778Z,58.98
2023-05-03T09:31:43.799Z,58.89
2023-05-03T09:32:43.794Z,58.89
2023-05-03T09:33:43.746Z,58.86
2023-05-03T09:34:43.758Z,58.98
2023-05-03T09:35:43.749Z,58.60
2023-05-03T09:36:44.515Z,58.70
2023-05-03T09:37:43.758Z,58.57
2023-05-03T09:38:43.780Z,58.60
2023-05-03T09:39:43.748Z,59.08
2023-05-03T09:40:43.956Z,58.40
2023-05-03T09:41:43.760Z,58.50
2023-05-03T09:42:43.750Z,59.08
2023-05-03T09:43:43.729Z,58.57
2023-05-03T09:44:43.737Z,58.98
2023-05-03T09:45:43.777Z,58.50
2023-05-03T09:46:43.745Z,58.47
2023-05-03T09:47:43.761Z,58.47
2023-05-03T09:48:43.743Z,58.86
2023-05-03T09:49:43.743Z,58.95
2023-05-03T09:50:43.734Z,58.98
2023-05-03T09:51:43.735Z,58.76
2023-05-03T09:52:43.729Z,58.86
2023-05-03T09:53:43.712Z,58.86
2023-05-03T09:54:43.747Z,58.86
2023-05-03T09:55:43.711Z,58.86
2023-05-03T09:56:43.746Z,58.76
2023-05-03T09:57:43.724Z,58.76
2023-05-03T09:58:43.948Z,59.05
2023-05-03T09:59:43.715Z,58.86
2023-05-03T10:00:43.709Z,59.05
2023-05-03T10:01:43.720Z,59.34
2023-05-03T10:02:43.756Z,59.24
2023-05-03T10:03:43.719Z,59.24
2023-05-03T10:04:43.709Z,59.24
2023-05-03T10:05:43.709Z,59.15
2023-05-03T10:06:43.771Z,59.24
2023-05-03T10:07:43.699Z,59.34
2023-05-03T10:08:43.696Z,59.24
2023-05-03T10:09:43.692Z,59.24
2023-05-03T10:10:43.707Z,59.24
2023-05-03T10:11:43.694Z,59.34
2023-05-03T10:12:43.733Z,59.15
2023-05-03T10:13:43.673Z,59.24
2023-05-03T10:14:43.693Z,59.24
2023-05-03T10:15:43.689Z,59.05
2023-05-03T10:16:43.678Z,59.24
2023-05-03T10:17:48.342Z,59.15
2023-05-03T10:18:43.680Z,59.24
2023-05-03T10:19:43.664Z,59.24
2023-05-03T10:20:43.669Z,59.24
2023-05-03T10:21:43.679Z,59.34
2023-05-03T10:22:43.663Z,59.24
2023-05-03T10:23:43.655Z,59.24
2023-05-03T10:24:43.659Z,59.05
2023-05-03T10:25:43.656Z,59.24
2023-05-03T10:26:43.663Z,59.24
2023-05-03T10:27:43.650Z,59.24
2023-05-03T10:28:43.703Z,59.15
2023-05-03T10:29:43.652Z,59.24
2023-05-03T10:30:43.654Z,59.24
2023-05-03T10:31:43.713Z,59.15
2023-05-03T10:32:43.667Z,59.44
2023-05-03T10:33:43.635Z,59.24
2023-05-03T10:34:45.201Z,59.44
2023-05-03T10:35:43.645Z,59.24
2023-05-03T10:36:49.925Z,59.15
2023-05-03T10:37:43.623Z,59.34
2023-05-03T10:38:43.633Z,59.15
2023-05-03T10:39:43.618Z,59.44
2023-05-03T10:40:43.663Z,59.05
2023-05-03T10:41:43.613Z,59.44
2023-05-03T10:42:43.635Z,59.44
2023-05-03T10:43:43.638Z,59.15
2023-05-03T10:44:43.654Z,59.05
2023-05-03T10:45:43.603Z,59.15
2023-05-03T10:46:43.645Z,59.05
2023-05-03T10:47:43.649Z,59.05
2023-05-03T10:48:43.600Z,59.05
2023-05-03T10:49:43.591Z,59.05
2023-05-03T10:50:43.615Z,59.05
2023-05-03T10:51:43.605Z,59.05
2023-05-03T10:52:43.624Z,59.15
2023-05-03T10:53:43.616Z,59.05
2023-05-03T10:54:43.584Z,59.24
2023-05-03T10:55:43.589Z,59.05
2023-05-03T10:56:43.578Z,59.24
2023-05-03T10:57:43.615Z,59.24
2023-05-03T10:58:43.597Z,59.44
2023-05-03T10:59:43.830Z,59.05
2023-05-03T11:00:43.607Z,59.05
2023-05-03T11:01:43.638Z,59.24
2023-05-03T11:02:43.605Z,59.05
2023-05-03T11:03:43.565Z,59.24
2023-05-03T11:04:43.599Z,59.24
2023-05-03T11:05:43.575Z,59.05
2023-05-03T11:06:43.600Z,59.44
2023-05-03T11:07:43.574Z,59.24
2023-05-03T11:08:43.575Z,59.44
2023-05-03T11:09:44.544Z,59.44
2023-05-03T11:10:43.563Z,59.24
2023-05-03T11:11:43.555Z,59.44
2023-05-03T11:12:43.556Z,59.05
2023-05-03T11:13:43.604Z,59.24
2023-05-03T11:14:43.558Z,59.44
2023-05-03T11:15:43.675Z,59.05
2023-05-03T11:16:43.608Z,59.15
2023-05-03T11:17:43.589Z,59.44
2023-05-03T11:18:43.529Z,59.15
2023-05-03T11:19:43.541Z,59.44
2023-05-03T11:20:43.543Z,59.44
2023-05-03T11:21:43.640Z,59.24
2023-05-03T11:22:43.529Z,59.05
2023-05-03T11:23:43.534Z,59.24
2023-05-03T11:24:43.537Z,59.05
2023-05-03T11:25:43.510Z,59.05
2023-05-03T11:26:43.548Z,59.05
2023-05-03T11:27:44.502Z,59.24
2023-05-03T11:28:43.527Z,59.24
2023-05-03T11:29:43.499Z,59.05
2023-05-03T11:30:43.508Z,59.24
2023-05-03T11:31:43.711Z,59.24
2023-05-03T11:32:43.752Z,59.05
2023-05-03T11:33:43.509Z,59.05
2023-05-03T11:34:43.506Z,59.44
2023-05-03T11:35:43.504Z,59.05
2023-05-03T11:36:43.484Z,59.15
2023-05-03T11:37:43.487Z,58.86
2023-05-03T11:38:43.476Z,59.24
2023-05-03T11:39:43.500Z,59.15
2023-05-03T11:40:43.503Z,59.15
2023-05-03T11:41:43.480Z,59.15
2023-05-03T11:42:43.491Z,59.44
2023-05-03T11:43:43.472Z,59.44
2023-05-03T11:44:43.478Z,59.24
2023-05-03T11:45:43.535Z,59.24
2023-05-03T11:46:43.538Z,59.44
2023-05-03T11:47:43.525Z,58.92
2023-05-03T11:48:43.680Z,59.24
2023-05-03T11:49:43.476Z,59.41
2023-05-03T11:50:43.491Z,59.24
2023-05-03T11:51:45.799Z,59.44
2023-05-03T11:52:43.456Z,59.24
2023-05-03T11:53:43.454Z,59.44
2023-05-03T11:54:43.440Z,59.44
2023-05-03T11:55:43.456Z,59.24
2023-05-03T11:56:43.502Z,59.05
2023-05-03T11:57:43.453Z,59.22
2023-05-03T11:58:43.456Z,58.95
2023-05-03T11:59:43.453Z,59.15
2023-05-03T12:00:43.448Z,59.02
2023-05-03T12:01:43.563Z,59.15
2023-05-03T12:02:43.614Z,58.92
2023-05-03T12:03:43.591Z,58.92
2023-05-03T12:04:44.446Z,59.22
2023-05-03T12:05:43.739Z,59.44
2023-05-03T12:06:45.151Z,59.41
2023-05-03T12:07:44.693Z,59.41
2023-05-03T12:08:44.956Z,59.12
2023-05-03T12:09:45.607Z,59.41
2023-05-03T12:10:43.595Z,59.22
2023-05-03T12:11:45.138Z,59.44
2023-05-03T12:12:48.288Z,59.12
2023-05-03T12:13:44.308Z,59.22
2023-05-03T12:14:43.810Z,59.22
2023-05-03T12:15:43.802Z,59.22
2023-05-03T12:16:43.458Z,59.12
2023-05-03T12:17:45.199Z,59.24
2023-05-03T12:18:43.579Z,59.22
2023-05-03T12:19:44.234Z,59.24
2023-05-03T12:21:29.030Z,59.22
2023-05-03T12:21:43.645Z,59.24
2023-05-03T12:22:45.089Z,59.24
2023-05-03T12:23:45.613Z,59.24
2023-05-03T12:24:45.287Z,59.22
2023-05-03T12:25:44.611Z,59.22
2023-05-03T12:26:43.446Z,59.24
2023-05-03T12:27:44.885Z,59.24
2023-05-03T12:28:43.437Z,59.22
2023-05-03T12:29:43.421Z,59.22
2023-05-03T12:30:45.994Z,59.22
2023-05-03T12:31:44.283Z,59.22
2023-05-03T12:32:44.505Z,59.22
2023-05-03T12:33:43.854Z,59.24
2023-05-03T12:34:46.119Z,59.22
2023-05-03T12:35:46.856Z,59.22
2023-05-03T12:36:43.990Z,59.22
2023-05-03T12:37:43.931Z,59.31
2023-05-03T12:38:43.850Z,59.24
2023-05-03T12:39:45.956Z,59.34
2023-05-03T12:40:43.401Z,59.15
2023-05-03T12:42:06.152Z,59.22
2023-05-03T12:42:43.663Z,59.12
2023-05-03T12:43:43.764Z,59.22
2023-05-03T12:44:43.647Z,59.31
2023-05-03T12:45:46.990Z,59.12
2023-05-03T12:46:45.214Z,59.24
2023-05-03T12:47:44.567Z,59.34
2023-05-03T12:48:46.446Z,59.24
2023-05-03T12:49:45.913Z,59.12
2023-05-03T12:50:45.246Z,59.31
2023-05-03T12:51:43.644Z,59.24
2023-05-03T12:52:45.334Z,59.31